Saturday, February 24, 2018, 9:54 AM GMT
Back to Local

CWIG, Ile Aux Grues, Que.

Location: , , Canada Lat: 47.067
Local Time: 9:54 AM GMT ( 9:54 GMT) Lon: -70.533
Time Zone: GMT Elev: 59 ft

Show me the last for .
Show Coded

Time T Td Feel RH Dir Speed Gust Alt SLP Vis Weather Sky Remarks
2018-02-24 09:00 - - - 0 190° 22 28 - - 0 Peak wind: 31 mph (27 kts) from 200° at 29 min
2018-02-24 08:00 - - - 0 190° 23 30 - - 0 Peak wind: 31 mph (27 kts) from 200° at 23 min
2018-02-24 07:00 - - - 0 190° 23 29 - - 0 Peak wind: 28 mph (25 kts) from 170° at 36 min
2018-02-24 06:00 - - - 0 190° 20 - - - 0 Peak wind: 24 mph (21 kts) from 180° at 52 min
2018-02-24 05:00 - - - 0 190° 13 - - - 0 None
2018-02-24 04:00 - - - 0 200° 10 - - - 0 None
2018-02-24 03:00 - - - 0 170° 8 - - - 0 None
2018-02-24 02:00 - - - 0 150° 6 - - - 0 None
2018-02-24 01:00 - - - 0 190° 5 - - - 0 None
2018-02-24 00:00 - - - 0 220° 3 - - - 0 None
2018-02-23 23:00 - - - 0 210° 3 - - - 0 None
2018-02-23 22:00 - - - 0 30° 5 - - - 0 None
2018-02-23 21:00 - - - 0 120° 1 - - - 0 None
2018-02-23 20:00 - - - 0 120° 3 - - - 0 None
2018-02-23 19:00 - - - 0 120° 3 - - - 0 None
2018-02-23 18:00 - - - 0 210° 7 - - - 0 None
2018-02-23 17:00 - - - 0 240° 5 - - - 0 None
2018-02-23 16:00 - - - 0 200° 7 - - - 0 None
2018-02-23 15:00 - - - 0 200° 8 - - - 0 None
2018-02-23 14:00 - - - 0 190° 8 - - - 0 None
2018-02-23 13:00 - - - 0 190° 9 - - - 0 None
2018-02-23 12:00 - - - 0 190° 9 - - - 0 None
2018-02-23 11:00 - - - 0 190° 10 - - - 0 None
2018-02-23 10:00 - - - 0 190° 9 - - - 0 None

Support USWX by starting your Amazon purchase here.